createdAt,value
2022-08-26T00:00:07.007Z,3.92
2022-08-26T00:00:19.065Z,4.00
2022-08-26T00:00:31.596Z,3.90
2022-08-26T00:00:46.752Z,4.00
2022-08-26T00:00:58.722Z,3.92
2022-08-26T00:01:10.661Z,4.07
2022-08-26T00:01:29.079Z,4.10
2022-08-26T00:01:44.143Z,4.10
2022-08-26T00:01:57.094Z,4.13
2022-08-26T00:02:09.157Z,4.30
2022-08-26T00:02:21.154Z,4.20
2022-08-26T00:02:33.575Z,4.10
2022-08-26T00:02:45.521Z,4.10
2022-08-26T00:02:58.553Z,4.13
2022-08-26T00:03:12.230Z,3.78
2022-08-26T00:03:24.350Z,4.00
2022-08-26T00:03:36.583Z,4.38
2022-08-26T00:03:48.680Z,4.32
2022-08-26T00:04:01.298Z,4.10
2022-08-26T00:04:13.565Z,4.03
2022-08-26T00:04:26.080Z,4.10
2022-08-26T00:04:38.231Z,4.10
2022-08-26T00:04:50.167Z,4.00
2022-08-26T00:05:02.562Z,3.95
2022-08-26T00:05:14.538Z,3.85
2022-08-26T00:05:27.074Z,3.78
2022-08-26T00:05:40.084Z,3.90
2022-08-26T00:05:52.414Z,4.03
2022-08-26T00:06:05.288Z,4.22
2022-08-26T00:06:20.843Z,4.20
2022-08-26T00:06:33.290Z,3.95
2022-08-26T00:06:46.351Z,4.00
2022-08-26T00:06:58.444Z,4.13
2022-08-26T00:07:10.446Z,4.00
2022-08-26T00:07:22.403Z,4.10
2022-08-26T00:07:34.343Z,4.20
2022-08-26T00:07:46.482Z,4.30
2022-08-26T00:08:00.619Z,4.30
2022-08-26T00:08:14.519Z,4.22
2022-08-26T00:08:26.454Z,4.28
2022-08-26T00:08:38.591Z,4.40
2022-08-26T00:08:50.959Z,4.55
2022-08-26T00:09:04.070Z,4.68
2022-08-26T00:09:20.222Z,4.60
2022-08-26T00:09:32.944Z,4.53
2022-08-26T00:09:51.279Z,4.53
2022-08-26T00:10:07.013Z,4.80
2022-08-26T00:10:21.248Z,4.82
2022-08-26T00:10:38.976Z,4.45
2022-08-26T00:10:50.993Z,4.43
2022-08-26T00:11:03.031Z,4.65
2022-08-26T00:11:15.531Z,4.70
2022-08-26T00:11:38.347Z,4.82
2022-08-26T00:11:50.553Z,4.85
2022-08-26T00:12:03.494Z,4.80
2022-08-26T00:12:15.616Z,4.70
2022-08-26T00:12:35.960Z,4.43
2022-08-26T00:12:49.842Z,4.82
2022-08-26T00:13:01.875Z,4.93
2022-08-26T00:13:14.310Z,5.00
2022-08-26T00:13:26.299Z,4.70
2022-08-26T00:13:38.790Z,4.68
2022-08-26T00:13:50.769Z,4.85
2022-08-26T00:14:02.992Z,4.80
2022-08-26T00:14:16.739Z,4.82
2022-08-26T00:14:30.925Z,4.90
2022-08-26T00:14:43.212Z,4.57
2022-08-26T00:14:55.158Z,4.47
2022-08-26T00:15:10.403Z,4.65
2022-08-26T00:15:23.961Z,4.90
2022-08-26T00:15:36.295Z,4.93
2022-08-26T00:15:48.322Z,4.90
2022-08-26T00:16:01.267Z,4.80
2022-08-26T00:16:14.886Z,4.68
2022-08-26T00:16:28.622Z,4.85
2022-08-26T00:16:47.311Z,4.80
2022-08-26T00:17:00.986Z,4.90
2022-08-26T00:17:13.467Z,4.93
2022-08-26T00:17:25.408Z,4.93
2022-08-26T00:17:40.234Z,4.93
2022-08-26T00:17:53.478Z,5.00
2022-08-26T00:18:05.817Z,4.78
2022-08-26T00:18:38.694Z,5.07
2022-08-26T00:18:53.120Z,5.15
2022-08-26T00:19:05.100Z,4.78
2022-08-26T00:19:21.135Z,4.72
2022-08-26T00:19:33.322Z,4.70
2022-08-26T00:19:45.344Z,4.78
2022-08-26T00:19:59.431Z,4.43
2022-08-26T00:20:14.374Z,4.30
2022-08-26T00:20:30.222Z,4.55
2022-08-26T00:20:42.964Z,5.00
2022-08-26T00:20:54.984Z,4.90
2022-08-26T00:21:08.489Z,4.88
2022-08-26T00:21:20.770Z,4.70
2022-08-26T00:21:32.695Z,4.80
2022-08-26T00:21:45.462Z,4.93
2022-08-26T00:21:57.388Z,4.75
2022-08-26T00:22:10.327Z,4.50
2022-08-26T00:22:23.510Z,4.80
2022-08-26T00:22:37.219Z,5.22
2022-08-26T00:22:49.166Z,5.20
2022-08-26T00:23:01.401Z,5.15
2022-08-26T00:23:13.420Z,5.00
2022-08-26T00:23:25.990Z,5.05
2022-08-26T00:23:40.894Z,4.82
2022-08-26T00:23:52.836Z,4.70
2022-08-26T00:24:04.934Z,4.70
2022-08-26T00:24:19.099Z,4.60
2022-08-26T00:24:30.995Z,4.50
2022-08-26T00:24:47.863Z,4.65
2022-08-26T00:25:00.137Z,4.72
2022-08-26T00:25:13.084Z,4.70
2022-08-26T00:25:25.753Z,4.82
2022-08-26T00:25:38.282Z,4.72
2022-08-26T00:25:54.571Z,4.50
2022-08-26T00:26:08.808Z,4.45
2022-08-26T00:26:23.110Z,4.25
2022-08-26T00:26:41.381Z,4.10
2022-08-26T00:26:53.688Z,4.18
2022-08-26T00:27:06.381Z,4.50
2022-08-26T00:27:18.530Z,4.50
2022-08-26T00:27:33.862Z,4.32
2022-08-26T00:27:47.710Z,4.38
2022-08-26T00:28:01.063Z,4.47
2022-08-26T00:28:13.157Z,4.55
2022-08-26T00:28:26.199Z,4.55
2022-08-26T00:28:38.269Z,4.60
2022-08-26T00:28:52.487Z,4.50
2022-08-26T00:29:05.544Z,4.55
2022-08-26T00:29:18.123Z,4.53
2022-08-26T00:29:31.891Z,4.32
2022-08-26T00:29:46.849Z,4.30
2022-08-26T00:29:58.788Z,4.25
2022-08-26T00:30:16.409Z,4.32
2022-08-26T00:30:34.654Z,4.55
2022-08-26T00:30:49.099Z,4.63
2022-08-26T00:31:03.998Z,4.80
2022-08-26T00:31:19.036Z,4.53
2022-08-26T00:31:31.414Z,4.30
2022-08-26T00:31:45.272Z,4.10
2022-08-26T00:31:57.665Z,4.00
2022-08-26T00:32:09.851Z,4.30
2022-08-26T00:32:23.464Z,4.63
2022-08-26T00:32:35.755Z,4.50
2022-08-26T00:32:49.810Z,4.40
2022-08-26T00:33:02.643Z,4.72
2022-08-26T00:33:16.282Z,4.70
2022-08-26T00:33:30.835Z,4.32
2022-08-26T00:33:43.923Z,4.93
2022-08-26T00:33:56.551Z,4.82
2022-08-26T00:34:09.334Z,4.55
2022-08-26T00:34:21.629Z,4.20
2022-08-26T00:34:33.955Z,4.15
2022-08-26T00:34:45.888Z,4.35
2022-08-26T00:34:57.810Z,4.32
2022-08-26T00:35:11.746Z,4.40
2022-08-26T00:35:24.596Z,4.55
2022-08-26T00:35:40.266Z,4.50
2022-08-26T00:35:58.280Z,4.30
2022-08-26T00:36:19.857Z,4.40
2022-08-26T00:36:32.400Z,4.45
2022-08-26T00:36:44.380Z,4.40
2022-08-26T00:36:56.381Z,4.35
2022-08-26T00:37:09.869Z,4.30
2022-08-26T00:37:24.993Z,4.20
2022-08-26T00:37:37.116Z,4.18
2022-08-26T00:37:49.277Z,4.20
2022-08-26T00:38:02.088Z,4.20
2022-08-26T00:38:15.256Z,4.18
2022-08-26T00:38:27.334Z,4.22
2022-08-26T00:38:39.267Z,4.50
2022-08-26T00:38:51.691Z,4.60
2022-08-26T00:39:04.225Z,4.40
2022-08-26T00:39:16.265Z,4.30
2022-08-26T00:39:28.739Z,4.22
2022-08-26T00:39:40.950Z,4.18
2022-08-26T00:39:53.213Z,4.22
2022-08-26T00:40:10.410Z,4.43
2022-08-26T00:40:39.460Z,4.53
2022-08-26T00:40:55.053Z,4.10
2022-08-26T00:41:07.040Z,4.18
2022-08-26T00:41:19.580Z,4.38
2022-08-26T00:41:31.645Z,4.30
2022-08-26T00:41:43.643Z,4.10
2022-08-26T00:41:55.750Z,4.20
2022-08-26T00:42:08.318Z,4.35
2022-08-26T00:42:20.658Z,4.50
2022-08-26T00:42:33.099Z,4.63
2022-08-26T00:42:46.023Z,4.60
2022-08-26T00:42:59.232Z,4.35
2022-08-26T00:43:12.055Z,4.30
2022-08-26T00:43:25.919Z,4.35
2022-08-26T00:43:47.569Z,4.20
2022-08-26T00:43:59.963Z,4.30
2022-08-26T00:44:12.792Z,4.55
2022-08-26T00:44:24.732Z,4.57
2022-08-26T00:44:36.672Z,4.47
2022-08-26T00:44:48.764Z,4.30
2022-08-26T00:45:04.650Z,4.40
2022-08-26T00:45:24.305Z,4.50
2022-08-26T00:45:48.092Z,4.38
2022-08-26T00:46:16.231Z,4.43
2022-08-26T00:46:33.717Z,4.50
2022-08-26T00:46:50.700Z,4.40
2022-08-26T00:47:08.272Z,4.38
2022-08-26T00:47:31.251Z,4.28
2022-08-26T00:47:48.239Z,4.20
2022-08-26T00:48:05.754Z,4.20
2022-08-26T00:48:21.546Z,4.15
2022-08-26T00:48:34.375Z,4.07
2022-08-26T00:48:50.934Z,4.10
2022-08-26T00:49:34.504Z,4.13
2022-08-26T00:49:47.621Z,4.30
2022-08-26T00:50:05.120Z,4.40
2022-08-26T00:50:23.984Z,4.30
2022-08-26T00:50:41.697Z,4.45
2022-08-26T00:50:59.393Z,4.75
2022-08-26T00:51:17.495Z,4.45
2022-08-26T00:51:30.758Z,4.13
2022-08-26T00:51:49.528Z,4.28
2022-08-26T00:52:04.938Z,4.28
2022-08-26T00:52:23.038Z,4.47
2022-08-26T00:52:35.918Z,4.38
2022-08-26T00:52:52.153Z,4.28
2022-08-26T00:53:41.600Z,4.03
2022-08-26T00:53:57.260Z,3.90
2022-08-26T00:54:10.922Z,4.13
2022-08-26T00:54:27.246Z,4.40
2022-08-26T00:54:46.595Z,4.35
2022-08-26T00:55:07.241Z,4.25
2022-08-26T00:55:34.499Z,4.32
2022-08-26T00:55:59.751Z,4.15
2022-08-26T00:56:43.321Z,4.22
2022-08-26T00:56:59.839Z,4.15
2022-08-26T00:57:16.928Z,4.25
2022-08-26T00:57:29.610Z,4.25
2022-08-26T00:57:42.359Z,4.38
2022-08-26T00:57:55.827Z,4.53
2022-08-26T00:58:08.521Z,4.47
2022-08-26T00:58:22.592Z,4.33
2022-08-26T00:58:37.901Z,4.20
2022-08-26T00:58:55.455Z,4.32
2022-08-26T00:59:11.291Z,4.38
2022-08-26T00:59:24.164Z,4.25
2022-08-26T00:59:36.670Z,4.13
2022-08-26T00:59:56.708Z,4.10
2022-08-26T01:00:14.386Z,4.10
2022-08-26T01:00:28.619Z,4.20
2022-08-26T01:00:40.627Z,4.22
2022-08-26T01:00:53.448Z,4.22
2022-08-26T01:01:05.727Z,4.22
2022-08-26T01:01:18.538Z,4.57
2022-08-26T01:01:38.013Z,4.45
2022-08-26T01:01:51.455Z,4.15
2022-08-26T01:02:04.251Z,4.22
2022-08-26T01:02:21.365Z,4.40
2022-08-26T01:02:33.740Z,4.15
2022-08-26T01:02:48.195Z,4.00
2022-08-26T01:03:03.006Z,3.97
2022-08-26T01:03:19.616Z,3.95
2022-08-26T01:03:36.706Z,4.28
2022-08-26T01:03:49.678Z,4.30
2022-08-26T01:04:01.944Z,4.13
2022-08-26T01:04:18.107Z,4.18
2022-08-26T01:04:33.261Z,4.45
2022-08-26T01:04:45.290Z,4.43
2022-08-26T01:05:03.358Z,4.53
2022-08-26T01:05:17.768Z,4.60
2022-08-26T01:05:30.396Z,4.22
2022-08-26T01:05:42.791Z,4.00
2022-08-26T01:05:58.239Z,3.95
2022-08-26T01:06:12.993Z,4.05
2022-08-26T01:06:25.818Z,4.38
2022-08-26T01:06:38.088Z,4.30
2022-08-26T01:06:52.834Z,4.28
2022-08-26T01:07:05.135Z,4.22
2022-08-26T01:07:17.728Z,4.22
2022-08-26T01:07:31.450Z,4.43
2022-08-26T01:07:43.899Z,4.50
2022-08-26T01:07:55.982Z,4.30
2022-08-26T01:08:08.564Z,4.38
2022-08-26T01:08:21.075Z,4.32
2022-08-26T01:08:36.481Z,4.25
2022-08-26T01:08:48.428Z,4.18
2022-08-26T01:09:00.407Z,4.20
2022-08-26T01:09:12.814Z,4.45
2022-08-26T01:09:24.778Z,4.40
2022-08-26T01:09:38.178Z,4.10
2022-08-26T01:09:51.991Z,3.83
2022-08-26T01:10:08.342Z,3.90
2022-08-26T01:10:25.702Z,4.18
2022-08-26T01:10:38.064Z,4.35
2022-08-26T01:10:52.589Z,4.40
2022-08-26T01:11:08.272Z,4.38
2022-08-26T01:11:20.803Z,4.50
2022-08-26T01:11:33.862Z,4.60
2022-08-26T01:11:49.431Z,4.47
2022-08-26T01:12:03.283Z,4.18
2022-08-26T01:12:15.318Z,3.97
2022-08-26T01:12:40.975Z,4.25
2022-08-26T01:12:57.993Z,4.40
2022-08-26T01:13:11.511Z,4.20
2022-08-26T01:13:23.995Z,4.22
2022-08-26T01:13:37.437Z,4.38
2022-08-26T01:13:53.443Z,4.40
2022-08-26T01:14:06.432Z,4.20
2022-08-26T01:14:21.506Z,4.23
2022-08-26T01:14:35.713Z,4.45
2022-08-26T01:14:49.447Z,4.40
2022-08-26T01:15:02.733Z,4.40
2022-08-26T01:15:24.553Z,4.38
2022-08-26T01:15:42.024Z,4.45
2022-08-26T01:15:56.899Z,4.30
2022-08-26T01:16:12.864Z,4.22
2022-08-26T01:16:25.508Z,4.47
2022-08-26T01:16:37.949Z,4.55
2022-08-26T01:16:50.264Z,4.50
2022-08-26T01:17:05.468Z,4.40
2022-08-26T01:17:18.362Z,4.20
2022-08-26T01:17:30.342Z,4.45
2022-08-26T01:17:46.327Z,4.65
2022-08-26T01:17:59.095Z,4.82
2022-08-26T01:18:13.255Z,4.63
2022-08-26T01:18:26.454Z,4.43
2022-08-26T01:18:41.984Z,4.25
2022-08-26T01:18:59.701Z,4.10
2022-08-26T01:19:37.448Z,4.40
2022-08-26T01:20:03.137Z,4.50
2022-08-26T01:20:34.042Z,4.60
2022-08-26T01:21:26.076Z,4.40
2022-08-26T01:21:49.801Z,4.47
2022-08-26T01:22:30.442Z,4.57
2022-08-26T01:23:01.658Z,4.43
2022-08-26T01:23:15.333Z,4.55
2022-08-26T01:23:31.225Z,4.78
2022-08-26T01:23:47.642Z,4.72
2022-08-26T01:24:00.077Z,4.80
2022-08-26T01:24:12.425Z,4.65
2022-08-26T01:24:28.747Z,4.60
2022-08-26T01:24:41.541Z,4.50
2022-08-26T01:24:53.882Z,4.50
2022-08-26T01:25:06.965Z,4.57
2022-08-26T01:25:21.385Z,4.60
2022-08-26T01:25:36.919Z,4.80
2022-08-26T01:25:56.901Z,4.65
2022-08-26T01:26:20.051Z,4.75
2022-08-26T01:26:40.488Z,4.65
2022-08-26T01:26:56.815Z,4.70
2022-08-26T01:27:12.405Z,4.65
2022-08-26T01:27:24.744Z,5.53
2022-08-26T01:27:36.761Z,5.55
2022-08-26T01:27:49.527Z,5.60
2022-08-26T01:28:21.541Z,4.85
2022-08-26T01:28:36.121Z,4.22
2022-08-26T01:28:51.976Z,4.25
2022-08-26T01:29:05.779Z,4.60
2022-08-26T01:29:20.206Z,4.90
2022-08-26T01:29:35.128Z,4.72
2022-08-26T01:29:48.855Z,4.50
2022-08-26T01:30:02.462Z,4.75
2022-08-26T01:30:14.928Z,4.97
2022-08-26T01:30:28.625Z,5.03
2022-08-26T01:30:42.174Z,5.03
2022-08-26T01:30:56.697Z,4.75
2022-08-26T01:31:14.595Z,4.90
2022-08-26T01:31:31.835Z,4.57
2022-08-26T01:31:47.197Z,4.38
2022-08-26T01:31:59.899Z,4.95
2022-08-26T01:32:16.013Z,5.03
2022-08-26T01:32:28.440Z,5.00
2022-08-26T01:32:41.066Z,4.90
2022-08-26T01:32:56.062Z,4.80
2022-08-26T01:33:12.733Z,4.72
2022-08-26T01:33:42.272Z,4.63
2022-08-26T01:34:06.015Z,5.10
2022-08-26T01:34:20.597Z,4.93
2022-08-26T01:34:36.021Z,4.97
2022-08-26T01:34:48.571Z,4.68
2022-08-26T01:35:02.223Z,4.60
2022-08-26T01:35:14.192Z,4.72
2022-08-26T01:35:26.679Z,4.90
2022-08-26T01:35:39.031Z,5.00
2022-08-26T01:35:51.059Z,4.93
2022-08-26T01:36:04.273Z,4.72
2022-08-26T01:36:16.259Z,4.88
2022-08-26T01:36:29.501Z,4.65
2022-08-26T01:36:41.735Z,4.65
2022-08-26T01:37:07.378Z,4.63
2022-08-26T01:37:24.175Z,4.65
2022-08-26T01:37:38.966Z,4.90
2022-08-26T01:37:54.752Z,4.78
2022-08-26T01:38:07.104Z,4.80
2022-08-26T01:38:19.306Z,5.00
2022-08-26T01:38:31.665Z,5.10
2022-08-26T01:38:45.148Z,5.22
2022-08-26T01:38:57.601Z,4.75
2022-08-26T01:39:10.508Z,4.68
2022-08-26T01:39:22.861Z,4.55
2022-08-26T01:39:36.690Z,4.40
2022-08-26T01:39:52.338Z,4.68
2022-08-26T01:40:07.540Z,4.90
2022-08-26T01:40:25.535Z,5.07
2022-08-26T01:40:40.083Z,4.82
2022-08-26T01:40:52.055Z,4.53
2022-08-26T01:41:16.139Z,4.72
2022-08-26T01:41:33.065Z,4.82
2022-08-26T01:41:46.161Z,4.80
2022-08-26T01:41:59.245Z,4.82
2022-08-26T01:42:16.743Z,4.85
2022-08-26T01:42:29.867Z,5.27
2022-08-26T01:42:42.563Z,5.60
2022-08-26T01:42:55.036Z,5.43
2022-08-26T01:43:09.407Z,4.80
2022-08-26T01:43:25.853Z,4.40
2022-08-26T01:43:39.340Z,4.50
2022-08-26T01:43:54.505Z,4.70
2022-08-26T01:44:14.903Z,5.30
2022-08-26T01:44:30.947Z,5.35
2022-08-26T01:44:47.555Z,5.05
2022-08-26T01:45:28.297Z,4.65
2022-08-26T01:45:41.808Z,5.00
2022-08-26T01:45:56.757Z,4.60
2022-08-26T01:46:09.169Z,4.75
2022-08-26T01:46:23.611Z,5.10
2022-08-26T01:46:35.815Z,4.88
2022-08-26T01:46:50.670Z,4.72
2022-08-26T01:47:05.175Z,4.55
2022-08-26T01:47:21.415Z,4.60
2022-08-26T01:47:35.952Z,4.78
2022-08-26T01:47:49.907Z,4.88
2022-08-26T01:48:14.731Z,4.90
2022-08-26T01:48:34.223Z,5.10
2022-08-26T01:48:48.870Z,5.13
2022-08-26T01:49:08.139Z,4.85
2022-08-26T01:49:22.802Z,5.03
2022-08-26T01:49:38.575Z,5.03
2022-08-26T01:49:53.618Z,4.90
2022-08-26T01:50:12.536Z,4.90
2022-08-26T01:50:31.107Z,5.28
2022-08-26T01:50:45.075Z,5.10
2022-08-26T01:50:57.943Z,4.80
2022-08-26T01:51:12.036Z,4.90
2022-08-26T01:51:26.401Z,4.90
2022-08-26T01:51:39.268Z,4.75
2022-08-26T01:51:55.241Z,4.65
2022-08-26T01:52:08.451Z,4.80
2022-08-26T01:52:27.648Z,5.13
2022-08-26T01:52:42.782Z,5.03
2022-08-26T01:52:56.683Z,4.78
2022-08-26T01:53:12.949Z,4.75
2022-08-26T01:53:25.442Z,4.90
2022-08-26T01:53:38.889Z,5.22
2022-08-26T01:53:54.699Z,5.38
2022-08-26T01:54:08.353Z,5.00
2022-08-26T01:54:25.331Z,4.75
2022-08-26T01:54:37.538Z,4.88
2022-08-26T01:54:51.437Z,5.00
2022-08-26T01:55:05.846Z,4.78
2022-08-26T01:55:33.107Z,4.60
2022-08-26T01:55:50.955Z,4.80
2022-08-26T01:56:05.206Z,4.60
2022-08-26T01:56:18.403Z,4.47
2022-08-26T01:56:36.556Z,4.70
2022-08-26T01:56:51.001Z,5.00
2022-08-26T01:57:03.983Z,4.97
2022-08-26T01:57:17.364Z,5.07
2022-08-26T01:57:29.635Z,4.82
2022-08-26T01:57:44.172Z,4.57
2022-08-26T01:57:57.335Z,4.60
2022-08-26T01:58:14.882Z,4.75
2022-08-26T01:58:32.951Z,4.80
2022-08-26T01:58:57.498Z,5.13
2022-08-26T01:59:14.343Z,4.93
2022-08-26T01:59:26.758Z,4.82
2022-08-26T01:59:38.810Z,4.93
2022-08-26T01:59:55.338Z,5.10
2022-08-26T02:00:11.026Z,5.15
2022-08-26T02:00:25.303Z,4.90
2022-08-26T02:00:39.458Z,4.80
2022-08-26T02:00:51.904Z,4.80
2022-08-26T02:01:05.743Z,4.88
2022-08-26T02:01:18.632Z,4.68
2022-08-26T02:01:31.187Z,4.65
2022-08-26T02:01:43.798Z,4.95
2022-08-26T02:01:57.324Z,5.20
2022-08-26T02:02:09.702Z,5.32
2022-08-26T02:02:22.339Z,4.95
2022-08-26T02:02:37.107Z,5.00
2022-08-26T02:03:12.824Z,5.28
2022-08-26T02:03:26.871Z,5.18
2022-08-26T02:04:02.428Z,5.00
2022-08-26T02:04:23.324Z,5.22
2022-08-26T02:05:10.902Z,4.80
2022-08-26T02:05:23.129Z,5.05
2022-08-26T02:05:35.721Z,5.03
2022-08-26T02:05:56.539Z,4.78
2022-08-26T02:06:09.282Z,5.10
2022-08-26T02:06:23.613Z,5.40
2022-08-26T02:06:38.830Z,5.38
2022-08-26T02:06:53.439Z,5.47
2022-08-26T02:07:09.115Z,5.40
2022-08-26T02:07:21.672Z,4.95
2022-08-26T02:07:34.206Z,4.80
2022-08-26T02:07:47.874Z,5.10
2022-08-26T02:08:00.055Z,5.30
2022-08-26T02:08:13.904Z,5.22
2022-08-26T02:08:44.609Z,5.20
2022-08-26T02:09:00.538Z,4.90
2022-08-26T02:09:13.500Z,5.00
2022-08-26T02:09:27.051Z,5.13
2022-08-26T02:09:41.280Z,5.15
2022-08-26T02:09:54.779Z,5.53
2022-08-26T02:10:10.136Z,5.68
2022-08-26T02:10:22.140Z,5.35
2022-08-26T02:10:35.927Z,5.03
2022-08-26T02:10:47.939Z,5.03
2022-08-26T02:11:00.303Z,5.05
2022-08-26T02:11:13.241Z,4.97
2022-08-26T02:11:25.616Z,4.80
2022-08-26T02:11:38.497Z,5.00
2022-08-26T02:11:51.789Z,5.45
2022-08-26T02:12:04.310Z,5.50
2022-08-26T02:12:19.613Z,5.15
2022-08-26T02:12:32.552Z,4.70
2022-08-26T02:12:44.488Z,4.70
2022-08-26T02:12:56.516Z,4.72
2022-08-26T02:13:10.631Z,4.85
2022-08-26T02:13:25.404Z,4.87
2022-08-26T02:13:44.841Z,5.10
2022-08-26T02:14:28.075Z,5.20
2022-08-26T02:14:44.424Z,5.00
2022-08-26T02:15:00.674Z,5.28
2022-08-26T02:15:12.894Z,5.32
2022-08-26T02:15:24.847Z,5.10
2022-08-26T02:15:37.786Z,4.90
2022-08-26T02:15:49.775Z,4.90
2022-08-26T02:16:03.722Z,5.03
2022-08-26T02:16:19.223Z,5.32
2022-08-26T02:16:46.461Z,4.95
2022-08-26T02:16:58.776Z,4.88
2022-08-26T02:17:12.230Z,4.90
2022-08-26T02:17:39.386Z,5.00
2022-08-26T02:17:52.602Z,5.18
2022-08-26T02:18:05.324Z,5.25
2022-08-26T02:18:18.339Z,5.10
2022-08-26T02:18:33.015Z,5.15
2022-08-26T02:18:46.999Z,5.30
2022-08-26T02:19:00.703Z,5.43
2022-08-26T02:19:17.043Z,5.68
2022-08-26T02:19:32.590Z,5.70
2022-08-26T02:19:48.403Z,5.43
2022-08-26T02:20:00.719Z,5.38
2022-08-26T02:20:17.004Z,5.30
2022-08-26T02:20:29.748Z,5.20
2022-08-26T02:20:41.681Z,5.25
2022-08-26T02:20:55.238Z,5.40
2022-08-26T02:21:09.679Z,5.35
2022-08-26T02:21:22.003Z,5.35
2022-08-26T02:21:38.528Z,5.50
2022-08-26T02:21:53.794Z,5.28
2022-08-26T02:22:13.830Z,5.10
2022-08-26T02:22:26.282Z,5.22
2022-08-26T02:22:38.419Z,5.20
2022-08-26T02:22:52.328Z,5.25
2022-08-26T02:23:04.581Z,5.25
2022-08-26T02:23:16.616Z,5.30
2022-08-26T02:23:28.746Z,5.20
2022-08-26T02:23:40.767Z,5.35
2022-08-26T02:23:53.556Z,5.10
2022-08-26T02:24:19.500Z,5.07
2022-08-26T02:24:48.897Z,5.10
2022-08-26T02:25:11.942Z,5.10
2022-08-26T02:25:52.619Z,5.32
2022-08-26T02:26:11.945Z,5.30
2022-08-26T02:26:27.155Z,5.10
2022-08-26T02:26:39.709Z,5.28
2022-08-26T02:26:52.900Z,5.35
2022-08-26T02:27:05.254Z,5.68
2022-08-26T02:27:22.127Z,5.50
2022-08-26T02:27:35.565Z,5.15
2022-08-26T02:27:47.698Z,5.32
2022-08-26T02:28:00.483Z,5.47
2022-08-26T02:28:14.167Z,5.70
2022-08-26T02:28:31.055Z,5.72
2022-08-26T02:28:51.065Z,5.20
2022-08-26T02:29:07.659Z,4.95
2022-08-26T02:29:28.989Z,5.10
2022-08-26T02:29:45.534Z,5.50
2022-08-26T02:30:10.445Z,5.78
2022-08-26T02:30:26.097Z,5.28
2022-08-26T02:30:41.092Z,5.00
2022-08-26T02:30:55.438Z,5.13
2022-08-26T02:31:08.138Z,5.28
2022-08-26T02:31:22.540Z,5.40
2022-08-26T02:31:34.733Z,5.25
2022-08-26T02:31:48.381Z,5.07
2022-08-26T02:32:00.434Z,5.32
2022-08-26T02:32:13.820Z,5.60
2022-08-26T02:32:30.548Z,5.45
2022-08-26T02:32:42.861Z,5.40
2022-08-26T02:32:55.375Z,5.50
2022-08-26T02:33:08.839Z,5.50
2022-08-26T02:33:20.878Z,5.55
2022-08-26T02:33:32.880Z,5.35
2022-08-26T02:33:44.854Z,5.32
2022-08-26T02:34:07.882Z,5.43
2022-08-26T02:34:28.350Z,5.57
2022-08-26T02:34:44.059Z,5.28
2022-08-26T02:34:56.019Z,5.70
2022-08-26T02:35:10.198Z,5.78
2022-08-26T02:35:23.606Z,5.60
2022-08-26T02:35:37.389Z,5.30
2022-08-26T02:35:49.325Z,5.15
2022-08-26T02:36:01.267Z,5.20
2022-08-26T02:36:19.504Z,5.30
2022-08-26T02:36:31.426Z,5.60
2022-08-26T02:36:44.308Z,5.70
2022-08-26T02:36:57.314Z,5.70
2022-08-26T02:37:10.771Z,5.28
2022-08-26T02:37:23.023Z,5.13
2022-08-26T02:37:35.447Z,5.40
2022-08-26T02:37:49.455Z,5.50
2022-08-26T02:38:02.524Z,5.50
2022-08-26T02:38:22.356Z,5.32
2022-08-26T02:38:36.047Z,5.30
2022-08-26T02:38:49.162Z,5.10
2022-08-26T02:39:04.538Z,5.20
2022-08-26T02:39:22.045Z,5.38
2022-08-26T02:39:36.858Z,5.63
2022-08-26T02:39:48.900Z,5.43
2022-08-26T02:40:01.571Z,5.50
2022-08-26T02:40:15.386Z,5.60
2022-08-26T02:40:34.210Z,5.47
2022-08-26T02:40:48.179Z,5.65
2022-08-26T02:41:00.159Z,6.07
2022-08-26T02:41:12.078Z,5.97
2022-08-26T02:41:24.005Z,5.72
2022-08-26T02:41:40.282Z,5.43
2022-08-26T02:41:57.718Z,5.47
2022-08-26T02:42:10.203Z,5.32
2022-08-26T02:42:22.318Z,5.50
2022-08-26T02:42:34.419Z,5.50
2022-08-26T02:42:47.612Z,5.43
2022-08-26T02:42:59.713Z,5.30
2022-08-26T02:43:12.537Z,5.28
2022-08-26T02:43:32.695Z,5.32
2022-08-26T02:43:44.975Z,5.40
2022-08-26T02:43:57.013Z,5.28
2022-08-26T02:44:10.580Z,4.97
2022-08-26T02:44:22.495Z,5.00
2022-08-26T02:44:34.651Z,5.32
2022-08-26T02:44:46.762Z,5.38
2022-08-26T02:44:58.759Z,5.18
2022-08-26T02:45:11.055Z,5.20
2022-08-26T02:45:23.806Z,5.25
2022-08-26T02:45:36.042Z,5.60
2022-08-26T02:45:48.096Z,5.78
2022-08-26T02:46:02.147Z,5.80
2022-08-26T02:46:27.818Z,5.80
2022-08-26T02:46:42.031Z,5.25
2022-08-26T02:46:59.613Z,5.30
2022-08-26T02:47:14.369Z,5.28
2022-08-26T02:47:26.443Z,5.03
2022-08-26T02:47:41.119Z,5.20
2022-08-26T02:47:53.169Z,5.32
2022-08-26T02:48:16.137Z,5.38
2022-08-26T02:48:30.830Z,5.20
2022-08-26T02:48:42.763Z,5.35
2022-08-26T02:48:54.915Z,5.60
2022-08-26T02:49:07.254Z,5.68
2022-08-26T02:49:19.590Z,5.70
2022-08-26T02:49:32.275Z,5.50
2022-08-26T02:49:47.188Z,5.50
2022-08-26T02:49:59.846Z,5.32
2022-08-26T02:50:11.891Z,5.30
2022-08-26T02:50:25.527Z,5.28
2022-08-26T02:50:38.170Z,5.68
2022-08-26T02:50:51.174Z,5.88
2022-08-26T02:51:03.513Z,5.70
2022-08-26T02:51:15.487Z,5.75
2022-08-26T02:51:28.133Z,5.50
2022-08-26T02:51:40.096Z,5.60
2022-08-26T02:51:52.234Z,5.60
2022-08-26T02:52:04.731Z,5.75
2022-08-26T02:52:16.883Z,5.93
2022-08-26T02:52:29.010Z,5.80
2022-08-26T02:52:41.251Z,5.50
2022-08-26T02:52:53.601Z,5.85
2022-08-26T02:53:06.510Z,5.80
2022-08-26T02:53:25.055Z,5.72
2022-08-26T02:53:37.426Z,5.73
2022-08-26T02:53:49.646Z,5.70
2022-08-26T02:54:03.341Z,5.55
2022-08-26T02:54:17.496Z,5.45
2022-08-26T02:54:29.951Z,5.60
2022-08-26T02:54:41.999Z,5.75
2022-08-26T02:54:53.993Z,6.00
2022-08-26T02:55:07.049Z,6.07
2022-08-26T02:55:19.370Z,5.75
2022-08-26T02:55:32.193Z,5.75
2022-08-26T02:55:44.145Z,6.05
2022-08-26T02:55:56.089Z,5.68
2022-08-26T02:56:08.722Z,5.13
2022-08-26T02:56:20.659Z,5.25
2022-08-26T02:56:33.741Z,5.50
2022-08-26T02:56:48.515Z,5.53
2022-08-26T02:57:00.778Z,5.70
2022-08-26T02:57:12.763Z,5.82
2022-08-26T02:57:24.669Z,5.95
2022-08-26T02:57:37.354Z,5.90
2022-08-26T02:57:49.821Z,5.70
2022-08-26T02:58:01.799Z,5.65
2022-08-26T02:58:15.950Z,5.90
2022-08-26T02:58:28.003Z,6.10
2022-08-26T02:58:39.977Z,5.90
2022-08-26T02:58:53.391Z,5.82
2022-08-26T02:59:05.410Z,6.00
2022-08-26T02:59:18.093Z,5.90
2022-08-26T02:59:31.295Z,5.88
2022-08-26T02:59:43.270Z,5.90
2022-08-26T02:59:56.242Z,5.63
2022-08-26T03:00:11.319Z,5.57
2022-08-26T03:00:23.906Z,5.73
2022-08-26T03:00:37.686Z,5.60
2022-08-26T03:00:53.147Z,5.60
2022-08-26T03:01:06.095Z,5.78
2022-08-26T03:01:30.629Z,5.88
2022-08-26T03:01:45.023Z,6.05
2022-08-26T03:01:57.527Z,5.75
2022-08-26T03:02:11.175Z,5.88
2022-08-26T03:02:23.528Z,5.78
2022-08-26T03:02:35.862Z,5.63
2022-08-26T03:02:48.092Z,6.00
2022-08-26T03:03:01.177Z,6.05
2022-08-26T03:03:13.263Z,5.60
2022-08-26T03:03:25.320Z,5.65
2022-08-26T03:03:37.251Z,5.57
2022-08-26T03:03:49.403Z,5.55
2022-08-26T03:04:03.517Z,5.30
2022-08-26T03:04:15.555Z,5.57
2022-08-26T03:04:27.728Z,5.70
2022-08-26T03:04:40.552Z,5.82
2022-08-26T03:05:11.263Z,5.65
2022-08-26T03:05:24.071Z,5.57
2022-08-26T03:05:36.891Z,5.80
2022-08-26T03:05:49.898Z,5.78
2022-08-26T03:06:01.832Z,5.97
2022-08-26T03:06:13.786Z,5.80
2022-08-26T03:06:25.734Z,5.63
2022-08-26T03:06:38.239Z,5.65
2022-08-26T03:06:52.774Z,6.07
2022-08-26T03:07:05.885Z,6.10
2022-08-26T03:07:19.590Z,5.72
2022-08-26T03:07:32.210Z,5.72
2022-08-26T03:07:44.136Z,5.88
2022-08-26T03:07:57.137Z,5.75
2022-08-26T03:08:12.200Z,5.78
2022-08-26T03:08:24.306Z,6.07
2022-08-26T03:08:37.256Z,7.10
2022-08-26T03:08:49.666Z,6.85
2022-08-26T03:09:01.651Z,5.80
2022-08-26T03:09:18.661Z,5.43
2022-08-26T03:09:31.303Z,5.93
2022-08-26T03:09:43.264Z,6.50
2022-08-26T03:09:55.241Z,6.47
2022-08-26T03:10:08.462Z,6.15
2022-08-26T03:10:21.695Z,5.72
2022-08-26T03:10:34.015Z,5.80
2022-08-26T03:10:47.530Z,6.07
2022-08-26T03:11:01.539Z,6.22
2022-08-26T03:11:14.684Z,6.13
2022-08-26T03:11:32.292Z,5.95
2022-08-26T03:11:47.079Z,6.00
2022-08-26T03:11:59.642Z,6.10
2022-08-26T03:12:12.327Z,6.35
2022-08-26T03:12:26.202Z,6.22
2022-08-26T03:12:38.249Z,6.15
2022-08-26T03:12:50.754Z,6.00
2022-08-26T03:13:05.222Z,6.15
2022-08-26T03:13:18.064Z,6.28
2022-08-26T03:13:30.119Z,6.13
2022-08-26T03:13:42.895Z,6.03
2022-08-26T03:13:55.459Z,6.13
2022-08-26T03:14:07.459Z,6.10
2022-08-26T03:14:19.422Z,5.90
2022-08-26T03:14:31.334Z,5.90
2022-08-26T03:14:43.267Z,5.90
2022-08-26T03:14:56.142Z,5.85
2022-08-26T03:15:16.503Z,5.70
2022-08-26T03:15:30.225Z,6.10
2022-08-26T03:15:42.785Z,6.22
2022-08-26T03:15:55.062Z,6.30
2022-08-26T03:16:08.757Z,6.32
2022-08-26T03:16:21.458Z,6.15
2022-08-26T03:16:36.993Z,5.85
2022-08-26T03:16:51.757Z,5.95
2022-08-26T03:17:04.844Z,5.90
2022-08-26T03:17:18.102Z,5.75